createdAt,value
2019-03-25T00:00:48.709Z,79.71
2019-03-25T00:01:48.717Z,79.80
2019-03-25T00:03:41.618Z,79.61
2019-03-25T00:04:41.621Z,79.52
2019-03-25T00:06:34.521Z,79.42
2019-03-25T00:07:34.523Z,79.61
2019-03-25T00:09:27.418Z,79.23
2019-03-25T00:10:27.474Z,79.80
2019-03-25T00:12:20.330Z,79.55
2019-03-25T00:13:20.331Z,79.36
2019-03-25T00:15:13.227Z,79.08
2019-03-25T00:16:13.236Z,79.17
2019-03-25T00:18:06.142Z,78.70
2019-03-25T00:19:06.145Z,79.08
2019-03-25T00:20:59.033Z,78.51
2019-03-25T00:21:59.041Z,78.42
2019-03-25T00:23:51.946Z,77.84
2019-03-25T00:24:51.949Z,77.94
2019-03-25T00:26:44.860Z,78.03
2019-03-25T00:27:44.854Z,77.75
2019-03-25T00:29:37.751Z,77.47
2019-03-25T00:30:37.759Z,77.37
2019-03-25T00:32:30.662Z,77.37
2019-03-25T00:33:30.662Z,77.56
2019-03-25T00:35:23.558Z,77.28
2019-03-25T00:36:23.565Z,77.18
2019-03-25T00:38:16.471Z,77.28
2019-03-25T00:39:16.473Z,76.90
2019-03-25T00:41:09.386Z,76.52
2019-03-25T00:42:09.380Z,76.52
2019-03-25T00:44:02.272Z,76.71
2019-03-25T00:45:02.281Z,76.71
2019-03-25T00:46:55.195Z,76.42
2019-03-25T00:47:55.199Z,76.42
2019-03-25T00:49:48.094Z,75.95
2019-03-25T00:50:48.106Z,76.04
2019-03-25T00:52:41.005Z,75.95
2019-03-25T00:53:41.007Z,75.95
2019-03-25T00:55:33.907Z,75.85
2019-03-25T00:56:33.914Z,75.57
2019-03-25T00:58:26.817Z,75.57
2019-03-25T00:59:26.820Z,75.19
2019-03-25T01:01:19.725Z,75.47
2019-03-25T01:02:19.726Z,75.23
2019-03-25T01:04:12.622Z,75.00
2019-03-25T01:05:12.634Z,75.23
2019-03-25T01:07:05.553Z,75.19
2019-03-25T01:08:05.539Z,74.81
2019-03-25T01:09:58.436Z,74.85
2019-03-25T01:10:58.443Z,74.56
2019-03-25T01:12:51.348Z,74.94
2019-03-25T01:13:51.352Z,74.37
2019-03-25T01:15:44.245Z,74.47
2019-03-25T01:16:44.253Z,74.47
2019-03-25T01:18:37.159Z,74.56
2019-03-25T01:19:37.197Z,74.27
2019-03-25T01:21:30.066Z,74.37
2019-03-25T01:22:30.081Z,74.47
2019-03-25T01:24:22.989Z,74.27
2019-03-25T01:25:22.981Z,74.47
2019-03-25T01:27:16.376Z,74.37
2019-03-25T01:28:16.378Z,74.37
2019-03-25T01:30:09.285Z,74.47
2019-03-25T01:31:09.288Z,74.56
2019-03-25T01:33:02.189Z,74.27
2019-03-25T01:34:02.192Z,74.66
2019-03-25T01:35:55.088Z,73.99
2019-03-25T01:36:55.099Z,74.66
2019-03-25T01:38:48.002Z,74.18
2019-03-25T01:39:48.004Z,74.27
2019-03-25T01:41:41.908Z,74.37
2019-03-25T01:42:41.916Z,74.47
2019-03-25T01:44:34.808Z,74.27
2019-03-25T01:45:34.818Z,74.08
2019-03-25T01:47:27.726Z,74.27
2019-03-25T01:48:27.723Z,74.47
2019-03-25T01:50:20.622Z,74.85
2019-03-25T01:51:20.630Z,74.56
2019-03-25T01:53:13.541Z,74.85
2019-03-25T01:54:13.539Z,75.23
2019-03-25T01:56:06.439Z,75.04
2019-03-25T01:57:06.448Z,74.66
2019-03-25T01:58:59.353Z,74.56
2019-03-25T01:59:59.355Z,74.75
2019-03-25T02:01:52.261Z,74.27
2019-03-25T02:02:52.265Z,74.08
2019-03-25T02:04:45.160Z,74.27
2019-03-25T02:05:45.168Z,74.27
2019-03-25T02:07:38.077Z,74.75
2019-03-25T02:08:38.077Z,74.94
2019-03-25T02:10:30.973Z,74.75
2019-03-25T02:11:31.038Z,74.66
2019-03-25T02:13:23.887Z,75.04
2019-03-25T02:14:23.889Z,74.47
2019-03-25T02:16:16.787Z,75.13
2019-03-25T02:17:16.793Z,74.94
2019-03-25T02:19:09.696Z,75.13
2019-03-25T02:20:09.698Z,75.13
2019-03-25T02:22:02.601Z,75.70
2019-03-25T02:23:02.769Z,74.75
2019-03-25T02:24:55.500Z,74.75
2019-03-25T02:25:55.509Z,75.89
2019-03-25T02:27:48.412Z,74.94
2019-03-25T02:28:48.417Z,75.51
2019-03-25T02:30:41.310Z,75.60
2019-03-25T02:31:41.326Z,75.60
2019-03-25T02:33:34.226Z,75.70
2019-03-25T02:34:34.225Z,75.99
2019-03-25T02:36:27.201Z,76.27
2019-03-25T02:37:27.141Z,75.99
2019-03-25T02:39:20.034Z,76.18
2019-03-25T02:40:20.034Z,76.65
2019-03-25T02:42:12.941Z,76.46
2019-03-25T02:43:12.949Z,76.27
2019-03-25T02:45:05.895Z,76.46
2019-03-25T02:46:05.847Z,76.56
2019-03-25T02:47:58.756Z,76.37
2019-03-25T02:48:58.765Z,76.65
2019-03-25T02:50:51.654Z,76.56
2019-03-25T02:51:51.661Z,77.12
2019-03-25T02:53:44.567Z,77.31
2019-03-25T02:54:44.575Z,77.89
2019-03-25T02:56:37.472Z,77.79
2019-03-25T02:57:37.478Z,77.89
2019-03-25T02:59:30.367Z,78.36
2019-03-25T03:00:30.388Z,77.98
2019-03-25T03:02:23.284Z,77.98
2019-03-25T03:03:23.286Z,77.89
2019-03-25T03:05:16.185Z,77.41
2019-03-25T03:06:16.194Z,77.51
2019-03-25T03:08:09.096Z,78.17
2019-03-25T03:09:09.097Z,77.98
2019-03-25T03:11:01.993Z,78.74
2019-03-25T03:12:02.006Z,78.74
2019-03-25T03:13:54.913Z,78.55
2019-03-25T03:14:54.913Z,78.83
2019-03-25T03:16:48.309Z,79.31
2019-03-25T03:17:48.314Z,79.79
2019-03-25T03:19:41.215Z,81.49
2019-03-25T03:20:41.216Z,81.97
2019-03-25T03:22:34.120Z,83.20
2019-03-25T03:23:34.124Z,82.73
2019-03-25T03:25:27.022Z,83.97
2019-03-25T03:26:27.042Z,84.63
2019-03-25T03:28:19.933Z,85.86
2019-03-25T03:29:19.934Z,86.72
2019-03-25T03:31:12.842Z,86.87
2019-03-25T03:32:12.877Z,86.96
2019-03-25T03:34:05.761Z,87.62
2019-03-25T03:35:05.747Z,88.10
2019-03-25T03:36:58.655Z,88.76
2019-03-25T03:37:58.656Z,89.24
2019-03-25T03:39:52.043Z,89.62
2019-03-25T03:40:52.058Z,89.72
2019-03-25T03:42:44.958Z,89.90
2019-03-25T03:43:44.957Z,89.58
2019-03-25T03:45:37.853Z,90.66
2019-03-25T03:46:37.866Z,90.52
2019-03-25T03:48:30.776Z,90.14
2019-03-25T03:49:30.769Z,91.00
2019-03-25T03:51:23.665Z,91.38
2019-03-25T03:52:23.674Z,90.71
2019-03-25T03:54:16.578Z,92.23
2019-03-25T03:55:16.580Z,92.04
2019-03-25T03:57:09.482Z,92.14
2019-03-25T03:58:09.483Z,92.14
2019-03-25T04:00:02.380Z,92.14
2019-03-25T04:01:02.396Z,92.71
2019-03-25T04:02:55.288Z,92.33
2019-03-25T04:03:55.287Z,92.71
2019-03-25T04:05:48.183Z,92.61
2019-03-25T04:06:48.194Z,92.61
2019-03-25T04:08:41.094Z,92.42
2019-03-25T04:09:41.093Z,92.71
2019-03-25T04:11:33.990Z,92.80
2019-03-25T04:12:33.997Z,92.71
2019-03-25T04:14:26.901Z,92.33
2019-03-25T04:15:26.909Z,92.71
2019-03-25T04:17:19.806Z,92.99
2019-03-25T04:18:19.806Z,93.08
2019-03-25T04:20:13.196Z,93.08
2019-03-25T04:21:13.204Z,93.27
2019-03-25T04:23:06.110Z,93.08
2019-03-25T04:24:06.107Z,93.08
2019-03-25T04:25:59.002Z,93.27
2019-03-25T04:26:59.010Z,93.13
2019-03-25T04:28:51.914Z,93.04
2019-03-25T04:29:51.914Z,93.13
2019-03-25T04:31:44.816Z,93.70
2019-03-25T04:32:44.818Z,93.51
2019-03-25T04:34:37.721Z,93.41
2019-03-25T04:35:37.741Z,93.41
2019-03-25T04:37:30.624Z,94.08
2019-03-25T04:38:30.627Z,93.70
2019-03-25T04:40:23.516Z,94.18
2019-03-25T04:41:23.525Z,93.80
2019-03-25T04:43:16.425Z,93.51
2019-03-25T04:44:16.426Z,93.89
2019-03-25T04:46:09.319Z,93.70
2019-03-25T04:47:09.329Z,93.89
2019-03-25T04:49:02.240Z,94.46
2019-03-25T04:50:02.234Z,94.08
2019-03-25T04:51:55.141Z,94.93
2019-03-25T04:52:55.131Z,94.74
2019-03-25T04:54:48.028Z,94.84
2019-03-25T04:55:48.037Z,94.65
2019-03-25T04:57:40.941Z,95.03
2019-03-25T04:58:40.940Z,95.60
2019-03-25T05:00:33.836Z,95.50
2019-03-25T05:01:33.844Z,95.31
2019-03-25T05:03:27.738Z,95.69
2019-03-25T05:04:27.739Z,95.69
2019-03-25T05:06:20.635Z,96.26
2019-03-25T05:07:20.641Z,95.88
2019-03-25T05:09:13.540Z,96.45
2019-03-25T05:10:13.541Z,96.17
2019-03-25T05:12:06.442Z,95.88
2019-03-25T05:13:06.444Z,95.88
2019-03-25T05:14:59.834Z,95.41
2019-03-25T05:15:59.841Z,94.93
2019-03-25T05:17:52.742Z,95.03
2019-03-25T05:18:52.745Z,94.93
2019-03-25T05:20:45.636Z,94.84
2019-03-25T05:21:45.644Z,94.46
2019-03-25T05:23:39.038Z,94.46
2019-03-25T05:24:39.046Z,93.89
2019-03-25T05:26:32.928Z,94.08
2019-03-25T05:27:32.942Z,93.51
2019-03-25T05:29:25.846Z,93.61
2019-03-25T05:30:25.841Z,93.23
2019-03-25T05:32:18.744Z,93.41
2019-03-25T05:33:18.744Z,93.13
2019-03-25T05:35:12.153Z,93.51
2019-03-25T05:36:12.166Z,93.04
2019-03-25T05:38:05.555Z,92.57
2019-03-25T05:39:05.560Z,92.57
2019-03-25T05:40:58.453Z,92.76
2019-03-25T05:41:58.461Z,92.28
2019-03-25T05:43:51.366Z,91.99
2019-03-25T05:44:51.369Z,92.38
2019-03-25T05:46:44.263Z,92.47
2019-03-25T05:47:44.271Z,92.66
2019-03-25T05:49:37.175Z,92.76
2019-03-25T05:50:37.178Z,92.66
2019-03-25T05:52:30.081Z,92.18
2019-03-25T05:53:30.082Z,92.38
2019-03-25T05:55:22.975Z,92.66
2019-03-25T05:56:22.982Z,92.38
2019-03-25T05:58:15.884Z,92.09
2019-03-25T05:59:15.885Z,92.38
2019-03-25T06:01:08.787Z,92.09
2019-03-25T06:02:08.792Z,92.28
2019-03-25T06:04:01.694Z,91.94
2019-03-25T06:05:01.716Z,91.66
2019-03-25T06:06:54.590Z,91.66
2019-03-25T06:07:54.594Z,90.81
2019-03-25T06:09:47.502Z,91.47
2019-03-25T06:10:47.500Z,91.66
2019-03-25T06:12:42.428Z,90.90
2019-03-25T06:13:40.405Z,91.09
2019-03-25T06:15:33.797Z,90.24
2019-03-25T06:16:33.805Z,90.14
2019-03-25T06:18:26.711Z,89.76
2019-03-25T06:19:26.709Z,89.67
2019-03-25T06:21:19.607Z,90.57
2019-03-25T06:22:19.615Z,91.33
2019-03-25T06:24:12.519Z,90.00
2019-03-25T06:25:12.520Z,89.28
2019-03-25T06:27:13.714Z,87.81
2019-03-25T06:28:05.427Z,86.10
2019-03-25T06:29:58.323Z,83.53
2019-03-25T06:30:58.334Z,81.73
2019-03-25T06:32:51.236Z,81.48
2019-03-25T06:33:51.239Z,80.44
2019-03-25T06:35:44.137Z,81.16
2019-03-25T06:36:44.148Z,81.82
2019-03-25T06:38:37.048Z,83.06
2019-03-25T06:39:37.051Z,82.96
2019-03-25T06:41:29.950Z,83.44
2019-03-25T06:42:30.069Z,83.06
2019-03-25T06:44:22.865Z,84.20
2019-03-25T06:45:22.868Z,84.82
2019-03-25T06:47:15.773Z,85.96
2019-03-25T06:48:15.779Z,85.86
2019-03-25T06:50:08.673Z,87.38
2019-03-25T06:51:08.701Z,86.91
2019-03-25T06:53:01.586Z,87.86
2019-03-25T06:54:01.590Z,87.86
2019-03-25T06:55:54.489Z,86.91
2019-03-25T06:56:54.504Z,87.10
2019-03-25T06:58:47.402Z,85.86
2019-03-25T06:59:47.405Z,85.68
2019-03-25T07:01:40.301Z,85.96
2019-03-25T07:02:40.312Z,86.15
2019-03-25T07:04:33.218Z,87.24
2019-03-25T07:05:33.224Z,87.14
2019-03-25T07:07:26.126Z,85.91
2019-03-25T07:08:26.129Z,85.05
2019-03-25T07:10:19.522Z,85.15
2019-03-25T07:11:19.531Z,85.49
2019-03-25T07:13:12.440Z,85.86
2019-03-25T07:14:12.446Z,86.63
2019-03-25T07:16:05.353Z,87.01
2019-03-25T07:17:05.361Z,87.38
2019-03-25T07:18:58.267Z,88.24
2019-03-25T07:19:58.270Z,88.71
2019-03-25T07:21:51.169Z,88.71
2019-03-25T07:22:51.176Z,88.71
2019-03-25T07:24:44.104Z,90.14
2019-03-25T07:25:44.109Z,90.90
2019-03-25T07:27:37.455Z,91.56
2019-03-25T07:28:38.708Z,92.13
2019-03-25T07:30:29.916Z,92.23
2019-03-25T07:31:29.929Z,91.94
2019-03-25T07:33:22.835Z,90.23
2019-03-25T07:34:22.839Z,89.57
2019-03-25T07:36:16.080Z,91.09
2019-03-25T07:37:16.093Z,89.90
2019-03-25T07:39:09.995Z,89.57
2019-03-25T07:40:09.999Z,89.57
2019-03-25T07:42:03.219Z,88.71
2019-03-25T07:43:02.913Z,88.81
2019-03-25T07:44:55.816Z,88.81
2019-03-25T07:45:55.821Z,88.62
2019-03-25T07:47:48.731Z,89.67
2019-03-25T07:48:48.734Z,89.09
2019-03-25T07:50:41.638Z,88.71
2019-03-25T07:51:41.642Z,88.24
2019-03-25T07:53:34.547Z,88.76
2019-03-25T07:54:34.551Z,89.04
2019-03-25T07:56:27.459Z,89.14
2019-03-25T07:57:27.460Z,89.33
2019-03-25T07:59:20.388Z,90.28
2019-03-25T08:00:20.386Z,90.09
2019-03-25T08:02:15.264Z,88.57
2019-03-25T08:03:13.275Z,88.71
2019-03-25T08:05:06.187Z,89.09
2019-03-25T08:06:06.194Z,89.09
2019-03-25T08:07:59.117Z,90.23
2019-03-25T08:09:03.658Z,91.09
2019-03-25T08:10:51.991Z,91.56
2019-03-25T08:11:52.036Z,92.04
2019-03-25T08:13:44.913Z,92.51
2019-03-25T08:14:44.919Z,93.56
2019-03-25T08:16:37.804Z,93.89
2019-03-25T08:17:37.811Z,94.56
2019-03-25T08:19:30.716Z,95.03
2019-03-25T08:20:30.718Z,94.84
2019-03-25T08:22:23.625Z,95.12
2019-03-25T08:23:23.627Z,94.65
2019-03-25T08:25:16.520Z,95.08
2019-03-25T08:26:16.534Z,95.17
2019-03-25T08:28:09.434Z,94.98
2019-03-25T08:29:09.438Z,95.65
2019-03-25T08:31:02.336Z,94.03
2019-03-25T08:32:02.344Z,93.18
2019-03-25T08:33:55.249Z,92.37
2019-03-25T08:34:55.251Z,92.23
2019-03-25T08:36:48.156Z,93.04
2019-03-25T08:37:48.163Z,91.99
2019-03-25T08:39:41.069Z,92.56
2019-03-25T08:40:41.069Z,89.90
2019-03-25T08:42:33.989Z,90.37
2019-03-25T08:43:33.994Z,91.13
2019-03-25T08:45:26.891Z,90.00
2019-03-25T08:46:26.903Z,89.42
2019-03-25T08:48:19.810Z,88.67
2019-03-25T08:49:19.815Z,88.95
2019-03-25T08:51:12.715Z,87.62
2019-03-25T08:52:12.724Z,87.14
2019-03-25T08:54:05.634Z,87.52
2019-03-25T08:55:05.640Z,86.86
2019-03-25T08:56:58.538Z,88.19
2019-03-25T08:57:58.547Z,87.85
2019-03-25T08:59:51.457Z,87.47
2019-03-25T09:00:51.459Z,85.57
2019-03-25T09:02:44.369Z,85.10
2019-03-25T09:03:44.370Z,84.62
2019-03-25T09:05:37.274Z,84.52
2019-03-25T09:06:37.286Z,85.00
2019-03-25T09:08:30.189Z,86.10
2019-03-25T09:09:30.194Z,87.34
2019-03-25T09:11:23.096Z,88.19
2019-03-25T09:12:23.104Z,88.00
2019-03-25T09:14:16.347Z,89.23
2019-03-25T09:15:16.014Z,89.23
2019-03-25T09:17:08.913Z,89.52
2019-03-25T09:18:08.924Z,88.47
2019-03-25T09:20:01.838Z,89.42
2019-03-25T09:21:01.836Z,89.80
2019-03-25T09:22:54.741Z,91.04
2019-03-25T09:23:54.752Z,89.42
2019-03-25T09:25:47.648Z,90.19
2019-03-25T09:26:47.660Z,90.33
2019-03-25T09:28:40.572Z,91.42
2019-03-25T09:29:40.567Z,91.04
2019-03-25T09:31:37.080Z,90.56
2019-03-25T09:32:33.972Z,90.85
2019-03-25T09:34:26.879Z,90.37
2019-03-25T09:35:26.884Z,91.04
2019-03-25T09:37:19.784Z,90.28
2019-03-25T09:38:19.793Z,89.66
2019-03-25T09:40:12.698Z,89.56
2019-03-25T09:41:12.704Z,89.94
2019-03-25T09:43:05.609Z,87.85
2019-03-25T09:44:05.612Z,87.66
2019-03-25T09:45:58.516Z,87.66
2019-03-25T09:46:58.525Z,88.67
2019-03-25T09:48:51.432Z,89.33
2019-03-25T09:49:51.433Z,91.33
2019-03-25T09:51:44.341Z,89.52
2019-03-25T09:52:44.344Z,91.13
2019-03-25T09:54:37.251Z,91.52
2019-03-25T09:55:37.254Z,91.80
2019-03-25T09:57:30.650Z,91.33
2019-03-25T09:58:36.055Z,91.85
2019-03-25T10:00:23.565Z,89.66
2019-03-25T10:01:23.569Z,88.80
2019-03-25T10:03:16.474Z,88.42
2019-03-25T10:04:16.477Z,87.28
2019-03-25T10:06:09.377Z,85.52
2019-03-25T10:07:09.388Z,86.76
2019-03-25T10:09:02.296Z,84.66
2019-03-25T10:10:02.300Z,83.39
2019-03-25T10:11:55.201Z,84.52
2019-03-25T10:12:56.823Z,85.95
2019-03-25T10:14:48.119Z,86.80
2019-03-25T10:15:48.123Z,86.52
2019-03-25T10:17:41.082Z,85.72
2019-03-25T10:18:41.089Z,87.05
2019-03-25T10:20:33.993Z,88.95
2019-03-25T10:21:33.999Z,89.42
2019-03-25T10:23:26.903Z,89.71
2019-03-25T10:24:27.998Z,89.33
2019-03-25T10:26:19.802Z,89.23
2019-03-25T10:27:19.813Z,88.85
2019-03-25T10:29:12.718Z,88.15
2019-03-25T10:30:12.721Z,88.81
2019-03-25T10:32:05.630Z,89.19
2019-03-25T10:33:05.640Z,87.76
2019-03-25T10:34:58.544Z,88.24
2019-03-25T10:35:58.547Z,88.28
2019-03-25T10:37:51.452Z,88.47
2019-03-25T10:38:51.456Z,88.76
2019-03-25T10:40:44.353Z,89.61
2019-03-25T10:41:44.363Z,90.47
2019-03-25T10:43:37.265Z,88.90
2019-03-25T10:44:37.269Z,88.33
2019-03-25T10:46:30.167Z,90.23
2019-03-25T10:47:30.179Z,90.14
2019-03-25T10:49:23.084Z,89.94
2019-03-25T10:50:23.086Z,87.66
2019-03-25T10:52:15.986Z,86.76
2019-03-25T10:53:15.996Z,85.14
2019-03-25T10:55:08.909Z,84.09
2019-03-25T10:56:08.905Z,84.19
2019-03-25T10:58:01.811Z,82.67
2019-03-25T10:59:01.815Z,81.96
2019-03-25T11:00:54.716Z,82.09
2019-03-25T11:01:54.727Z,81.81
2019-03-25T11:03:47.632Z,80.19
2019-03-25T11:04:47.635Z,79.43
2019-03-25T11:06:41.030Z,78.86
2019-03-25T11:09:33.950Z,78.48
2019-03-25T11:10:33.953Z,78.48
2019-03-25T11:12:26.853Z,78.86
2019-03-25T11:13:26.862Z,78.61
2019-03-25T11:15:19.771Z,78.67
2019-03-25T11:16:19.770Z,79.75
2019-03-25T11:18:12.684Z,78.52
2019-03-25T11:19:12.682Z,78.61
2019-03-25T11:21:05.588Z,78.77
2019-03-25T11:22:05.592Z,79.47
2019-03-25T11:23:58.508Z,79.28
2019-03-25T11:24:58.510Z,77.76
2019-03-25T11:26:51.409Z,76.71
2019-03-25T11:27:54.511Z,77.28
2019-03-25T11:29:44.326Z,78.37
2019-03-25T11:30:44.334Z,76.94
2019-03-25T11:32:37.233Z,74.37
2019-03-25T11:33:37.242Z,74.08
2019-03-25T11:35:30.160Z,74.75
2019-03-25T11:36:30.162Z,75.60
2019-03-25T11:38:23.069Z,74.18
2019-03-25T11:39:23.073Z,73.70
2019-03-25T11:41:15.974Z,72.65
2019-03-25T11:42:15.986Z,73.32
2019-03-25T11:44:08.895Z,70.94
2019-03-25T11:45:08.901Z,70.27
2019-03-25T11:47:01.805Z,70.37
2019-03-25T11:48:01.816Z,69.26
2019-03-25T11:49:54.732Z,68.02
2019-03-25T11:50:54.731Z,66.69
2019-03-25T11:52:47.634Z,66.69
2019-03-25T11:53:47.645Z,68.02
2019-03-25T11:55:41.047Z,65.64
2019-03-25T11:56:41.056Z,64.97
2019-03-25T11:58:33.964Z,65.07
2019-03-25T11:59:33.969Z,64.97
2019-03-25T12:01:26.886Z,65.07
2019-03-25T12:02:26.885Z,66.59
2019-03-25T12:04:19.850Z,70.21
2019-03-25T12:05:19.804Z,70.78
2019-03-25T12:07:12.709Z,70.84
2019-03-25T12:08:12.721Z,71.70
2019-03-25T12:10:05.635Z,73.76
2019-03-25T12:11:05.639Z,73.57
2019-03-25T12:12:58.540Z,74.62
2019-03-25T12:13:58.553Z,75.53
2019-03-25T12:15:51.467Z,75.81
2019-03-25T12:16:51.473Z,76.57
2019-03-25T12:18:44.438Z,75.95
2019-03-25T12:19:44.392Z,76.61
2019-03-25T12:21:37.294Z,75.57
2019-03-25T12:22:37.305Z,74.80
2019-03-25T12:24:30.215Z,73.61
2019-03-25T12:25:30.226Z,72.65
2019-03-25T12:27:23.208Z,70.78
2019-03-25T12:28:23.138Z,70.40
2019-03-25T12:30:16.051Z,70.31
2019-03-25T12:31:16.059Z,70.59
2019-03-25T12:33:08.971Z,70.75
2019-03-25T12:34:09.000Z,71.03
2019-03-25T12:36:01.876Z,74.65
2019-03-25T12:37:01.894Z,74.90
2019-03-25T12:38:54.801Z,75.09
2019-03-25T12:39:54.807Z,76.04
2019-03-25T12:41:47.712Z,77.70
2019-03-25T12:42:47.724Z,77.13
2019-03-25T12:44:40.631Z,76.08
2019-03-25T12:45:40.636Z,75.93
2019-03-25T12:47:33.541Z,74.21
2019-03-25T12:48:33.555Z,74.69
2019-03-25T12:50:26.461Z,73.74
2019-03-25T12:51:26.468Z,71.26
2019-03-25T12:53:19.375Z,68.88
2019-03-25T12:54:19.380Z,68.78
2019-03-25T12:56:12.283Z,69.96
2019-03-25T12:57:12.294Z,70.06
2019-03-25T12:59:05.210Z,69.20
2019-03-25T13:00:05.211Z,68.15
2019-03-25T13:01:58.121Z,68.34
2019-03-25T13:02:58.128Z,68.34
2019-03-25T13:04:51.040Z,65.20
2019-03-25T13:05:51.045Z,62.88
2019-03-25T13:07:43.950Z,62.68
2019-03-25T13:08:43.962Z,63.54
2019-03-25T13:10:36.874Z,63.92
2019-03-25T13:11:36.877Z,64.69
2019-03-25T13:13:29.787Z,65.70
2019-03-25T13:14:29.794Z,66.66
2019-03-25T13:16:22.702Z,68.18
2019-03-25T13:17:22.705Z,68.18
2019-03-25T13:19:15.619Z,69.23
2019-03-25T13:20:15.625Z,70.27
2019-03-25T13:22:08.527Z,71.00
2019-03-25T13:23:08.541Z,70.27
2019-03-25T13:25:01.454Z,70.27
2019-03-25T13:26:01.457Z,70.56
2019-03-25T13:27:54.852Z,70.14
2019-03-25T13:29:02.063Z,71.00
2019-03-25T13:30:47.773Z,74.71
2019-03-25T13:31:47.777Z,76.71
2019-03-25T13:33:40.760Z,78.96
2019-03-25T13:34:40.692Z,79.24
2019-03-25T13:36:33.631Z,81.43
2019-03-25T13:37:33.610Z,81.71
2019-03-25T13:39:26.515Z,82.43
2019-03-25T13:40:26.519Z,82.62
2019-03-25T13:42:19.423Z,82.43
2019-03-25T13:43:19.431Z,82.81
2019-03-25T13:45:12.337Z,83.29
2019-03-25T13:46:12.341Z,83.95
2019-03-25T13:48:05.240Z,85.10
2019-03-25T13:49:05.251Z,85.19
2019-03-25T13:50:58.161Z,85.57
2019-03-25T13:51:58.163Z,86.14
2019-03-25T13:53:51.068Z,86.24
2019-03-25T13:54:51.074Z,85.57
2019-03-25T13:56:43.972Z,86.80
2019-03-25T13:57:43.984Z,86.33
2019-03-25T13:59:36.888Z,86.80
2019-03-25T14:00:36.897Z,85.28
2019-03-25T14:02:29.794Z,84.62
2019-03-25T14:03:29.804Z,85.10
2019-03-25T14:05:22.709Z,86.09
2019-03-25T14:06:22.715Z,85.42
2019-03-25T14:08:16.125Z,85.61
2019-03-25T14:09:16.129Z,85.24
2019-03-25T14:11:09.027Z,86.28
2019-03-25T14:12:09.038Z,85.99
2019-03-25T14:14:02.089Z,85.33
2019-03-25T14:15:02.088Z,85.24
2019-03-25T14:16:54.993Z,84.00
2019-03-25T14:17:55.005Z,84.19
2019-03-25T14:19:47.907Z,84.56
2019-03-25T14:20:47.913Z,84.66
2019-03-25T14:22:41.306Z,84.66
2019-03-25T14:23:41.319Z,85.42
2019-03-25T14:25:34.225Z,84.56
2019-03-25T14:26:34.225Z,84.76
2019-03-25T14:28:27.137Z,83.71
2019-03-25T14:29:27.138Z,83.23
2019-03-25T14:31:20.574Z,83.52
2019-03-25T14:32:20.557Z,84.66
2019-03-25T14:34:14.573Z,86.28
2019-03-25T14:35:13.463Z,86.28
2019-03-25T14:37:06.366Z,87.04
2019-03-25T14:38:06.379Z,87.52
2019-03-25T14:39:59.282Z,86.94
2019-03-25T14:40:59.288Z,87.04
2019-03-25T14:42:52.741Z,87.04
2019-03-25T14:43:52.203Z,86.76
2019-03-25T14:45:45.106Z,87.04
2019-03-25T14:46:45.111Z,87.08
2019-03-25T14:48:38.017Z,85.56
2019-03-25T14:49:38.018Z,85.28
2019-03-25T14:51:30.919Z,85.66
2019-03-25T14:52:30.975Z,84.52
2019-03-25T14:54:23.838Z,83.56
2019-03-25T14:55:23.844Z,83.28
2019-03-25T14:57:16.755Z,81.37
2019-03-25T14:58:16.758Z,79.47
2019-03-25T15:00:09.667Z,76.14
2019-03-25T15:01:09.675Z,76.33
2019-03-25T15:03:02.574Z,77.24
2019-03-25T15:04:02.583Z,77.81
2019-03-25T15:05:56.039Z,79.14
2019-03-25T15:06:55.497Z,78.29
2019-03-25T15:08:48.436Z,78.38
2019-03-25T15:09:48.436Z,79.33
2019-03-25T15:11:41.340Z,79.33
2019-03-25T15:12:41.359Z,79.24
2019-03-25T15:14:34.256Z,80.10
2019-03-25T15:15:34.261Z,79.62
2019-03-25T15:17:27.161Z,80.00
2019-03-25T15:18:27.171Z,79.58
2019-03-25T15:20:20.623Z,79.86
2019-03-25T15:21:20.576Z,80.24
2019-03-25T15:23:13.523Z,80.91
2019-03-25T15:24:13.499Z,81.38
2019-03-25T15:26:08.009Z,82.43
2019-03-25T15:27:06.396Z,82.76
2019-03-25T15:28:59.308Z,81.81
2019-03-25T15:29:59.307Z,81.24
2019-03-25T15:31:52.219Z,80.86
2019-03-25T15:32:52.223Z,80.47
2019-03-25T15:34:45.125Z,80.76
2019-03-25T15:35:45.129Z,80.10
2019-03-25T15:37:38.102Z,80.10
2019-03-25T15:38:38.104Z,80.47
2019-03-25T15:40:31.080Z,80.29
2019-03-25T15:41:31.015Z,81.14
2019-03-25T15:43:24.911Z,81.14
2019-03-25T15:44:24.927Z,79.91
2019-03-25T15:46:17.832Z,79.72
2019-03-25T15:47:17.857Z,79.81
2019-03-25T15:49:10.744Z,79.33
2019-03-25T15:50:10.749Z,79.72
2019-03-25T15:52:03.654Z,80.66
2019-03-25T15:53:03.660Z,81.24
2019-03-25T15:54:56.578Z,81.43
2019-03-25T15:55:56.577Z,81.90
2019-03-25T15:57:49.474Z,82.19
2019-03-25T15:58:49.485Z,80.57
2019-03-25T16:00:47.627Z,81.52
2019-03-25T16:01:42.399Z,81.05
2019-03-25T16:03:35.838Z,80.95
2019-03-25T16:04:35.806Z,80.10
2019-03-25T16:06:28.708Z,78.10
2019-03-25T16:07:28.717Z,77.72
2019-03-25T16:09:22.127Z,78.57
2019-03-25T16:10:22.137Z,78.29
2019-03-25T16:12:15.029Z,78.57
2019-03-25T16:13:15.131Z,78.48
2019-03-25T16:15:07.948Z,78.67
2019-03-25T16:16:07.949Z,78.38
2019-03-25T16:18:00.877Z,79.05
2019-03-25T16:19:00.906Z,78.96
2019-03-25T16:20:53.767Z,79.62
2019-03-25T16:21:53.770Z,79.05
2019-03-25T16:23:46.677Z,79.52
2019-03-25T16:24:46.677Z,79.09
2019-03-25T16:26:39.613Z,78.90
2019-03-25T16:27:39.596Z,79.09
2019-03-25T16:29:32.523Z,78.99
2019-03-25T16:30:32.535Z,78.61
2019-03-25T16:32:25.448Z,78.71
2019-03-25T16:33:25.444Z,78.90
2019-03-25T16:35:18.349Z,78.99
2019-03-25T16:36:18.348Z,78.90
2019-03-25T16:38:11.248Z,78.52
2019-03-25T16:39:11.261Z,79.05
2019-03-25T16:41:04.173Z,80.29
2019-03-25T16:42:04.170Z,80.47
2019-03-25T16:43:57.104Z,81.05
2019-03-25T16:44:57.106Z,81.90
2019-03-25T16:46:50.009Z,81.62
2019-03-25T16:47:50.012Z,81.52
2019-03-25T16:49:42.944Z,82.00
2019-03-25T16:50:42.927Z,81.71
2019-03-25T16:52:35.898Z,81.90
2019-03-25T16:53:35.857Z,81.48
2019-03-25T16:55:28.769Z,81.86
2019-03-25T16:56:29.063Z,82.05
2019-03-25T16:58:21.663Z,82.15
2019-03-25T16:59:21.676Z,82.43
2019-03-25T17:01:14.582Z,81.96
2019-03-25T17:02:14.584Z,82.05
2019-03-25T17:04:07.543Z,82.24
2019-03-25T17:05:07.527Z,82.15
2019-03-25T17:07:00.428Z,82.24
2019-03-25T17:08:00.434Z,81.96
2019-03-25T17:09:53.339Z,82.15
2019-03-25T17:10:53.339Z,82.24
2019-03-25T17:12:46.242Z,81.96
2019-03-25T17:13:46.251Z,82.24
2019-03-25T17:15:39.215Z,82.15
2019-03-25T17:16:39.187Z,82.43
2019-03-25T17:18:32.072Z,82.24
2019-03-25T17:19:32.085Z,81.96
2019-03-25T17:21:24.990Z,81.77
2019-03-25T17:22:24.995Z,81.67
2019-03-25T17:24:17.901Z,81.67
2019-03-25T17:25:17.928Z,81.67
2019-03-25T17:27:10.861Z,81.01
2019-03-25T17:28:10.812Z,81.10
2019-03-25T17:30:03.791Z,80.44
2019-03-25T17:31:03.719Z,80.91
2019-03-25T17:32:56.613Z,80.34
2019-03-25T17:33:56.623Z,80.34
2019-03-25T17:35:49.530Z,80.72
2019-03-25T17:36:49.641Z,81.01
2019-03-25T17:38:42.433Z,80.44
2019-03-25T17:39:42.443Z,79.58
2019-03-25T17:41:35.868Z,79.30
2019-03-25T17:42:35.963Z,78.82
2019-03-25T17:44:28.766Z,79.30
2019-03-25T17:45:28.766Z,79.58
2019-03-25T17:47:21.660Z,79.39
2019-03-25T17:48:21.718Z,79.39
2019-03-25T17:50:14.579Z,79.39
2019-03-25T17:51:14.583Z,79.30
2019-03-25T17:53:07.486Z,79.30
2019-03-25T17:54:07.492Z,79.86
2019-03-25T17:56:00.394Z,78.63
2019-03-25T17:57:00.416Z,78.34
2019-03-25T17:58:53.305Z,78.06
2019-03-25T17:59:53.313Z,77.77
2019-03-25T18:01:46.202Z,77.49
2019-03-25T18:02:46.261Z,77.49
2019-03-25T18:04:39.114Z,76.54
2019-03-25T18:05:39.121Z,76.82
2019-03-25T18:07:32.531Z,77.11
2019-03-25T18:08:32.586Z,77.07
2019-03-25T18:10:25.464Z,76.69
2019-03-25T18:11:25.442Z,76.88
2019-03-25T18:13:22.477Z,77.26
2019-03-25T18:14:18.351Z,77.26
2019-03-25T18:16:11.264Z,77.45
2019-03-25T18:17:11.258Z,77.92
2019-03-25T18:19:04.162Z,77.64
2019-03-25T18:20:04.217Z,77.45
2019-03-25T18:21:57.076Z,78.02
2019-03-25T18:22:57.069Z,78.69
2019-03-25T18:24:50.176Z,78.21
2019-03-25T18:25:50.179Z,78.40
2019-03-25T18:27:43.578Z,78.88
2019-03-25T18:28:43.577Z,78.88
2019-03-25T18:30:36.985Z,79.25
2019-03-25T18:31:43.158Z,79.16
2019-03-25T18:33:30.381Z,79.44
2019-03-25T18:34:30.392Z,79.83